createdAt,value
2017-03-22T00:00:41.729Z,0
2017-03-22T00:01:41.406Z,0
2017-03-22T00:02:41.731Z,0
2017-03-22T00:03:41.650Z,0
2017-03-22T00:04:41.347Z,0
2017-03-22T00:05:41.239Z,0
2017-03-22T00:06:41.284Z,0
2017-03-22T00:07:41.516Z,0
2017-03-22T00:08:41.546Z,0
2017-03-22T00:09:41.171Z,0
2017-03-22T00:10:41.749Z,0
2017-03-22T00:11:41.428Z,0
2017-03-22T00:12:41.127Z,0
2017-03-22T00:13:41.406Z,0
2017-03-22T00:14:41.382Z,0
2017-03-22T00:15:41.077Z,0
2017-03-22T00:16:41.721Z,0
2017-03-22T00:17:41.290Z,0
2017-03-22T00:18:41.557Z,0
2017-03-22T00:19:41.232Z,0
2017-03-22T00:20:41.297Z,0
2017-03-22T00:21:41.033Z,0
2017-03-22T00:22:41.456Z,0
2017-03-22T00:23:40.944Z,0
2017-03-22T00:24:41.159Z,0
2017-03-22T00:25:40.256Z,0
2017-03-22T00:26:41.133Z,0
2017-03-22T00:27:41.088Z,0
2017-03-22T00:28:40.807Z,0
2017-03-22T00:29:41.291Z,0
2017-03-22T00:30:40.982Z,0
2017-03-22T00:31:40.635Z,0
2017-03-22T00:32:40.920Z,0
2017-03-22T00:33:41.211Z,0
2017-03-22T00:34:40.248Z,0
2017-03-22T00:35:40.846Z,0
2017-03-22T00:36:41.134Z,0
2017-03-22T00:37:40.907Z,0
2017-03-22T00:38:40.506Z,0
2017-03-22T00:39:41.053Z,0
2017-03-22T00:40:40.466Z,0
2017-03-22T00:41:40.077Z,0
2017-03-22T00:42:40.989Z,0
2017-03-22T00:43:40.976Z,0
2017-03-22T00:44:40.626Z,0
2017-03-22T00:45:40.306Z,0
2017-03-22T00:46:40.277Z,0
2017-03-22T00:47:40.576Z,0
2017-03-22T00:48:40.303Z,0
2017-03-22T00:49:40.558Z,0
2017-03-22T00:50:40.790Z,0
2017-03-22T00:51:40.564Z,0
2017-03-22T00:52:40.443Z,0
2017-03-22T00:53:40.125Z,0
2017-03-22T00:54:40.420Z,0
2017-03-22T00:55:40.668Z,0
2017-03-22T00:56:40.357Z,0
2017-03-22T00:57:40.653Z,0
2017-03-22T00:58:40.326Z,0
2017-03-22T00:59:40.317Z,0
2017-03-22T01:00:40.570Z,0
2017-03-22T01:01:40.242Z,0
2017-03-22T01:02:40.235Z,0
2017-03-22T01:03:40.210Z,0
2017-03-22T01:04:39.891Z,0
2017-03-22T01:05:39.827Z,0
2017-03-22T01:06:40.438Z,0
2017-03-22T01:07:40.075Z,0
2017-03-22T01:08:40.450Z,0
2017-03-22T01:09:40.366Z,0
2017-03-22T01:10:40.038Z,0
2017-03-22T01:11:39.705Z,0
2017-03-22T01:12:39.680Z,0
2017-03-22T01:13:39.958Z,0
2017-03-22T01:14:40.245Z,0
2017-03-22T01:15:39.927Z,0
2017-03-22T01:16:40.198Z,0
2017-03-22T01:17:39.877Z,0
2017-03-22T01:18:39.537Z,0
2017-03-22T01:19:39.826Z,0
2017-03-22T01:20:40.146Z,0
2017-03-22T01:21:40.086Z,0
2017-03-22T01:22:39.765Z,0
2017-03-22T01:23:39.720Z,0
2017-03-22T01:24:40.086Z,0
2017-03-22T01:25:39.981Z,0
2017-03-22T01:26:39.961Z,0
2017-03-22T01:27:39.642Z,0
2017-03-22T01:28:39.296Z,0
2017-03-22T01:29:39.587Z,0
2017-03-22T01:30:39.867Z,0
2017-03-22T01:31:39.931Z,0
2017-03-22T01:32:39.518Z,0
2017-03-22T01:33:39.196Z,0
2017-03-22T01:34:39.469Z,0
2017-03-22T01:35:39.437Z,0
2017-03-22T01:36:39.452Z,0
2017-03-22T01:37:39.101Z,0
2017-03-22T01:38:39.405Z,0
2017-03-22T01:39:39.335Z,0
2017-03-22T01:40:39.667Z,0
2017-03-22T01:41:39.278Z,0
2017-03-22T01:42:39.637Z,0
2017-03-22T01:43:39.596Z,0
2017-03-22T01:44:39.582Z,0
2017-03-22T01:45:39.623Z,0
2017-03-22T01:46:39.505Z,0
2017-03-22T01:47:39.168Z,0
2017-03-22T01:48:38.527Z,0
2017-03-22T01:49:38.901Z,0
2017-03-22T01:50:39.073Z,0
2017-03-22T01:51:39.361Z,0
2017-03-22T01:52:39.423Z,0
2017-03-22T01:53:39.094Z,0
2017-03-22T01:54:39.455Z,0
2017-03-22T01:55:39.330Z,0
2017-03-22T01:56:39.294Z,0
2017-03-22T01:57:39.362Z,0
2017-03-22T01:58:38.997Z,0
2017-03-22T01:59:38.845Z,0
2017-03-22T02:00:38.895Z,0
2017-03-22T02:01:39.223Z,0
2017-03-22T02:02:38.196Z,0
2017-03-22T02:03:38.798Z,0
2017-03-22T02:04:38.802Z,0
2017-03-22T02:05:38.516Z,0
2017-03-22T02:06:38.076Z,0
2017-03-22T02:07:38.706Z,0
2017-03-22T02:08:38.976Z,0
2017-03-22T02:09:38.676Z,0
2017-03-22T02:10:38.612Z,0
2017-03-22T02:11:37.979Z,0
2017-03-22T02:12:38.647Z,0
2017-03-22T02:13:37.926Z,0
2017-03-22T02:14:38.204Z,0
2017-03-22T02:15:38.800Z,0
2017-03-22T02:16:38.473Z,0
2017-03-22T02:17:38.158Z,0
2017-03-22T02:18:38.715Z,0
2017-03-22T02:19:38.379Z,0
2017-03-22T02:20:38.657Z,0
2017-03-22T02:21:38.018Z,0
2017-03-22T02:22:38.360Z,0
2017-03-22T02:23:38.596Z,0
2017-03-22T02:24:38.275Z,0
2017-03-22T02:25:38.256Z,0
2017-03-22T02:26:37.916Z,0
2017-03-22T02:27:37.896Z,0
2017-03-22T02:28:38.238Z,0
2017-03-22T02:29:38.153Z,0
2017-03-22T02:30:38.416Z,0
2017-03-22T02:31:38.088Z,0
2017-03-22T02:32:37.828Z,0
2017-03-22T02:33:38.043Z,0
2017-03-22T02:34:38.347Z,0
2017-03-22T02:35:38.318Z,0
2017-03-22T02:36:37.975Z,0
2017-03-22T02:37:38.271Z,0
2017-03-22T02:38:38.237Z,0
2017-03-22T02:39:37.977Z,0
2017-03-22T02:40:38.187Z,0
2017-03-22T02:41:38.172Z,0
2017-03-22T02:42:38.138Z,0
2017-03-22T02:43:37.816Z,0
2017-03-22T02:44:37.473Z,0
2017-03-22T02:45:38.063Z,0
2017-03-22T02:46:38.026Z,0
2017-03-22T02:47:37.097Z,0
2017-03-22T02:48:37.978Z,0
2017-03-22T02:49:37.736Z,0
2017-03-22T02:50:37.947Z,0
2017-03-22T02:51:37.915Z,0
2017-03-22T02:52:37.598Z,0
2017-03-22T02:53:37.876Z,0
2017-03-22T02:54:37.554Z,0
2017-03-22T02:55:37.830Z,0
2017-03-22T02:56:37.796Z,0
2017-03-22T02:57:37.260Z,0
2017-03-22T02:58:37.779Z,0
2017-03-22T02:59:37.427Z,0
2017-03-22T03:00:37.381Z,0
2017-03-22T03:01:37.356Z,0
2017-03-22T03:02:36.813Z,0
2017-03-22T03:03:37.637Z,0
2017-03-22T03:04:37.610Z,0
2017-03-22T03:05:37.278Z,0
2017-03-22T03:06:37.538Z,0
2017-03-22T03:07:37.547Z,0
2017-03-22T03:08:37.585Z,0
2017-03-22T03:09:37.174Z,0
2017-03-22T03:10:37.152Z,0
2017-03-22T03:11:37.427Z,0
2017-03-22T03:12:36.836Z,0
2017-03-22T03:13:36.478Z,0
2017-03-22T03:14:37.075Z,0
2017-03-22T03:15:37.027Z,0
2017-03-22T03:16:37.343Z,0
2017-03-22T03:17:36.985Z,0
2017-03-22T03:18:36.769Z,0
2017-03-22T03:19:36.636Z,0
2017-03-22T03:20:36.898Z,0
2017-03-22T03:21:36.863Z,0
2017-03-22T03:22:36.967Z,0
2017-03-22T03:23:36.827Z,0
2017-03-22T03:24:36.210Z,0
2017-03-22T03:25:37.147Z,0
2017-03-22T03:26:36.726Z,0
2017-03-22T03:27:36.740Z,0
2017-03-22T03:28:36.693Z,0
2017-03-22T03:29:36.677Z,0
2017-03-22T03:30:36.660Z,0
2017-03-22T03:31:37.016Z,0
2017-03-22T03:32:36.620Z,0
2017-03-22T03:33:36.276Z,0
2017-03-22T03:34:36.858Z,0
2017-03-22T03:35:36.509Z,0
2017-03-22T03:36:36.208Z,0
2017-03-22T03:37:36.578Z,0
2017-03-22T03:38:36.477Z,0
2017-03-22T03:39:36.432Z,0
2017-03-22T03:40:36.470Z,0
2017-03-22T03:41:36.679Z,0
2017-03-22T03:42:36.375Z,0
2017-03-22T03:43:36.040Z,0
2017-03-22T03:44:36.006Z,0
2017-03-22T03:45:36.747Z,0
2017-03-22T03:46:36.027Z,0
2017-03-22T03:47:35.950Z,0
2017-03-22T03:48:35.907Z,0
2017-03-22T03:49:35.873Z,0
2017-03-22T03:50:35.842Z,0
2017-03-22T03:51:36.447Z,0
2017-03-22T03:52:36.417Z,0
2017-03-22T03:53:36.096Z,0
2017-03-22T03:54:35.867Z,0
2017-03-22T03:55:35.726Z,0
2017-03-22T03:56:35.995Z,0
2017-03-22T03:57:35.684Z,0
2017-03-22T03:58:36.296Z,0
2017-03-22T03:59:35.940Z,0
2017-03-22T04:00:35.602Z,0
2017-03-22T04:01:36.206Z,0
2017-03-22T04:02:36.189Z,0
2017-03-22T04:03:35.865Z,0
2017-03-22T04:04:35.587Z,0
2017-03-22T04:05:35.803Z,0
2017-03-22T04:06:36.078Z,0
2017-03-22T04:07:35.759Z,0
2017-03-22T04:08:35.409Z,0
2017-03-22T04:09:35.742Z,0
2017-03-22T04:10:35.747Z,0
2017-03-22T04:11:35.346Z,0
2017-03-22T04:12:35.713Z,0
2017-03-22T04:13:35.913Z,0
2017-03-22T04:14:35.889Z,0
2017-03-22T04:15:35.633Z,0
2017-03-22T04:16:35.507Z,0
2017-03-22T04:17:35.240Z,0
2017-03-22T04:18:35.480Z,0
2017-03-22T04:19:35.782Z,0
2017-03-22T04:20:35.709Z,0
2017-03-22T04:21:35.164Z,0
2017-03-22T04:22:35.365Z,0
2017-03-22T04:23:35.363Z,0
2017-03-22T04:24:35.644Z,0
2017-03-22T04:25:35.001Z,0
2017-03-22T04:26:35.277Z,0
2017-03-22T04:27:35.558Z,0
2017-03-22T04:28:34.928Z,0
2017-03-22T04:29:35.202Z,0
2017-03-22T04:30:35.167Z,0
2017-03-22T04:31:35.147Z,0
2017-03-22T04:32:35.441Z,0
2017-03-22T04:33:35.494Z,0
2017-03-22T04:34:35.391Z,0
2017-03-22T04:35:35.377Z,0
2017-03-22T04:36:35.324Z,0
2017-03-22T04:37:34.998Z,0
2017-03-22T04:38:35.000Z,0
2017-03-22T04:39:34.668Z,0
2017-03-22T04:40:34.617Z,0
2017-03-22T04:41:34.318Z,0
2017-03-22T04:42:35.187Z,0
2017-03-22T04:43:35.179Z,0
2017-03-22T04:44:34.827Z,0
2017-03-22T04:45:34.493Z,0
2017-03-22T04:46:35.110Z,0
2017-03-22T04:47:34.799Z,0
2017-03-22T04:48:35.110Z,0
2017-03-22T04:49:35.078Z,0
2017-03-22T04:50:34.998Z,0
2017-03-22T04:51:34.336Z,0
2017-03-22T04:52:34.330Z,0
2017-03-22T04:53:34.909Z,0
2017-03-22T04:54:34.289Z,0
2017-03-22T04:55:34.894Z,0
2017-03-22T04:56:34.938Z,0
2017-03-22T04:57:34.947Z,0
2017-03-22T04:58:34.862Z,0
2017-03-22T04:59:34.883Z,0
2017-03-22T05:00:34.737Z,0
2017-03-22T05:01:34.479Z,0
2017-03-22T05:02:34.693Z,0
2017-03-22T05:03:34.703Z,0
2017-03-22T05:04:34.328Z,0
2017-03-22T05:05:34.296Z,0
2017-03-22T05:06:34.276Z,0
2017-03-22T05:07:34.267Z,0
2017-03-22T05:08:34.587Z,0
2017-03-22T05:09:34.628Z,0
2017-03-22T05:10:34.487Z,0
2017-03-22T05:11:34.149Z,0
2017-03-22T05:12:34.128Z,0
2017-03-22T05:13:34.408Z,0
2017-03-22T05:14:34.078Z,0
2017-03-22T05:15:34.391Z,0
2017-03-22T05:16:34.107Z,0
2017-03-22T05:17:34.298Z,0
2017-03-22T05:18:33.704Z,0
2017-03-22T05:19:33.687Z,0
2017-03-22T05:20:33.356Z,0
2017-03-22T05:21:34.212Z,0
2017-03-22T05:22:34.210Z,0
2017-03-22T05:23:34.206Z,0
2017-03-22T05:24:33.517Z,0
2017-03-22T05:25:33.486Z,0
2017-03-22T05:26:33.487Z,0
2017-03-22T05:27:33.806Z,0
2017-03-22T05:28:33.737Z,5
2017-03-22T05:29:33.697Z,5
2017-03-22T05:30:33.707Z,5
2017-03-22T05:31:33.348Z,5
2017-03-22T05:32:33.627Z,5
2017-03-22T05:33:33.969Z,5
2017-03-22T05:34:32.945Z,5
2017-03-22T05:35:33.846Z,5
2017-03-22T05:36:33.517Z,5
2017-03-22T05:37:33.227Z,5
2017-03-22T05:38:33.553Z,10
2017-03-22T05:39:33.497Z,10
2017-03-22T05:40:33.716Z,10
2017-03-22T05:41:33.397Z,10
2017-03-22T05:42:33.689Z,10
2017-03-22T05:43:33.706Z,10
2017-03-22T05:44:33.105Z,10
2017-03-22T05:45:33.014Z,15
2017-03-22T05:46:33.273Z,15
2017-03-22T05:47:32.635Z,15
2017-03-22T05:48:33.528Z,15
2017-03-22T05:49:33.537Z,15
2017-03-22T05:50:33.156Z,15
2017-03-22T05:51:32.891Z,20
2017-03-22T05:52:33.129Z,20
2017-03-22T05:53:32.817Z,20
2017-03-22T05:54:33.097Z,20
2017-03-22T05:55:33.416Z,20
2017-03-22T05:56:33.335Z,25
2017-03-22T05:57:33.003Z,25
2017-03-22T05:58:32.969Z,25
2017-03-22T05:59:33.306Z,25
2017-03-22T06:00:32.316Z,30
2017-03-22T06:01:32.622Z,30
2017-03-22T06:02:33.260Z,35
2017-03-22T06:03:32.905Z,35
2017-03-22T06:04:32.826Z,35
2017-03-22T06:05:32.823Z,40
2017-03-22T06:06:33.148Z,40
2017-03-22T06:07:33.075Z,40
2017-03-22T06:08:33.076Z,45
2017-03-22T06:09:33.108Z,45
2017-03-22T06:10:32.666Z,45
2017-03-22T06:11:32.993Z,45
2017-03-22T06:12:33.074Z,50
2017-03-22T06:13:32.605Z,45
2017-03-22T06:14:32.977Z,50
2017-03-22T06:15:32.556Z,50
2017-03-22T06:16:32.674Z,50
2017-03-22T06:17:32.495Z,50
2017-03-22T06:18:32.576Z,50
2017-03-22T06:19:32.798Z,55
2017-03-22T06:20:32.798Z,55
2017-03-22T06:21:32.685Z,55
2017-03-22T06:22:32.157Z,60
2017-03-22T06:23:32.653Z,60
2017-03-22T06:24:32.417Z,60
2017-03-22T06:25:32.300Z,60
2017-03-22T06:26:32.717Z,65
2017-03-22T06:27:32.569Z,65
2017-03-22T06:28:32.237Z,65
2017-03-22T06:29:32.209Z,65
2017-03-22T06:30:32.522Z,70
2017-03-22T06:31:32.508Z,70
2017-03-22T06:32:32.470Z,70
2017-03-22T06:33:32.116Z,75
2017-03-22T06:34:32.093Z,75
2017-03-22T06:35:32.428Z,80
2017-03-22T06:36:32.131Z,80
2017-03-22T06:37:32.306Z,80
2017-03-22T06:38:31.761Z,80
2017-03-22T06:39:32.347Z,85
2017-03-22T06:40:32.234Z,85
2017-03-22T06:41:31.715Z,90
2017-03-22T06:42:32.197Z,95
2017-03-22T06:43:32.165Z,95
2017-03-22T06:44:32.135Z,100
2017-03-22T06:45:32.100Z,100
2017-03-22T06:46:32.189Z,100
2017-03-22T06:47:31.479Z,105
2017-03-22T06:48:31.748Z,110
2017-03-22T06:49:32.026Z,110
2017-03-22T06:50:31.988Z,110
2017-03-22T06:51:31.469Z,115
2017-03-22T06:52:31.944Z,115
2017-03-22T06:53:31.982Z,120
2017-03-22T06:54:31.349Z,125
2017-03-22T06:55:31.590Z,125
2017-03-22T06:56:31.546Z,135
2017-03-22T06:57:32.880Z,145
2017-03-22T06:58:31.831Z,330
2017-03-22T06:59:31.790Z,775
2017-03-22T07:00:31.203Z,1020
2017-03-22T07:01:31.718Z,1020
2017-03-22T07:02:31.713Z,1035
2017-03-22T07:03:31.383Z,960
2017-03-22T07:04:31.674Z,840
2017-03-22T07:05:31.116Z,735
2017-03-22T07:06:31.584Z,710
2017-03-22T07:07:31.618Z,700
2017-03-22T07:08:31.279Z,595
2017-03-22T07:09:31.245Z,760
2017-03-22T07:10:31.205Z,755
2017-03-22T07:11:30.992Z,675
2017-03-22T07:12:30.930Z,690
2017-03-22T07:13:31.140Z,580
2017-03-22T07:14:31.443Z,560
2017-03-22T07:15:30.824Z,510
2017-03-22T07:16:31.371Z,440
2017-03-22T07:17:31.128Z,420
2017-03-22T07:18:30.743Z,410
2017-03-22T07:19:31.343Z,420
2017-03-22T07:20:31.296Z,380
2017-03-22T07:21:31.277Z,305
2017-03-22T07:22:30.950Z,245
2017-03-22T07:23:30.633Z,205
2017-03-22T07:24:31.225Z,180
2017-03-22T07:25:30.928Z,190
2017-03-22T07:26:30.654Z,190
2017-03-22T07:27:30.837Z,190
2017-03-22T07:28:30.949Z,195
2017-03-22T07:29:30.799Z,195
2017-03-22T07:30:31.137Z,200
2017-03-22T07:31:31.053Z,200
2017-03-22T07:32:31.085Z,205
2017-03-22T07:33:30.435Z,210
2017-03-22T07:34:30.404Z,210
2017-03-22T07:35:30.084Z,215
2017-03-22T07:36:30.681Z,215
2017-03-22T07:37:30.375Z,220
2017-03-22T07:38:30.954Z,220
2017-03-22T07:39:30.959Z,220
2017-03-22T07:40:30.895Z,225
2017-03-22T07:41:30.934Z,230
2017-03-22T07:42:30.555Z,230
2017-03-22T07:43:30.628Z,230
2017-03-22T07:44:30.577Z,230
2017-03-22T07:45:30.797Z,230
2017-03-22T07:46:30.205Z,240
2017-03-22T07:47:30.485Z,240
2017-03-22T07:48:30.445Z,235
2017-03-22T07:49:30.742Z,245
2017-03-22T07:50:30.436Z,245
2017-03-22T07:51:30.100Z,245
2017-03-22T07:52:30.075Z,245
2017-03-22T07:53:30.696Z,250
2017-03-22T07:54:30.685Z,260
2017-03-22T07:55:30.685Z,250
2017-03-22T07:56:30.326Z,260
2017-03-22T07:57:30.035Z,260
2017-03-22T07:58:30.324Z,255
2017-03-22T07:59:30.625Z,270
2017-03-22T08:00:30.570Z,310
2017-03-22T08:01:30.566Z,745
2017-03-22T08:02:29.943Z,1140
2017-03-22T08:03:30.554Z,1140
2017-03-22T08:04:30.334Z,1160
2017-03-22T08:05:30.253Z,1200
2017-03-22T08:06:30.515Z,1315
2017-03-22T08:07:30.235Z,1395
2017-03-22T08:08:30.190Z,1490
2017-03-22T08:09:29.884Z,1560
2017-03-22T08:10:30.485Z,1645
2017-03-22T08:11:30.456Z,1600
2017-03-22T08:12:30.171Z,1600
2017-03-22T08:13:29.825Z,1555
2017-03-22T08:14:30.163Z,1675
2017-03-22T08:15:30.425Z,1775
2017-03-22T08:16:30.134Z,1820
2017-03-22T08:17:30.425Z,1780
2017-03-22T08:18:29.789Z,1710
2017-03-22T08:19:30.178Z,1655
2017-03-22T08:20:30.504Z,1655
2017-03-22T08:21:29.780Z,1730
2017-03-22T08:22:29.765Z,1735
2017-03-22T08:23:30.367Z,1685
2017-03-22T08:24:30.126Z,1695
2017-03-22T08:25:30.113Z,1690
2017-03-22T08:26:29.754Z,1675
2017-03-22T08:27:30.353Z,1675
2017-03-22T08:28:30.378Z,1690
2017-03-22T08:29:30.066Z,1755
2017-03-22T08:30:30.016Z,1825
2017-03-22T08:31:30.402Z,1790
2017-03-22T08:32:30.050Z,1735
2017-03-22T08:33:30.371Z,1690
2017-03-22T08:34:29.976Z,1650
2017-03-22T08:35:29.985Z,1635
2017-03-22T08:36:29.973Z,1635
2017-03-22T08:37:30.274Z,1770
2017-03-22T08:38:30.254Z,1930
2017-03-22T08:39:30.238Z,1870
2017-03-22T08:40:30.263Z,1750
2017-03-22T08:41:29.944Z,1725
2017-03-22T08:42:30.265Z,1635
2017-03-22T08:43:30.225Z,1625
2017-03-22T08:44:29.618Z,1685
2017-03-22T08:45:29.716Z,1795
2017-03-22T08:46:29.602Z,1820
2017-03-22T08:47:29.958Z,1730
2017-03-22T08:48:29.624Z,1730
2017-03-22T08:49:29.258Z,1825
2017-03-22T08:50:29.278Z,1795
2017-03-22T08:51:29.575Z,1720
2017-03-22T08:52:29.890Z,1725
2017-03-22T08:53:29.894Z,1695
2017-03-22T08:54:30.237Z,1670
2017-03-22T08:55:30.154Z,1655
2017-03-22T08:56:30.014Z,1710
2017-03-22T08:57:29.864Z,1770
2017-03-22T08:58:29.845Z,1790
2017-03-22T08:59:29.965Z,1845
2017-03-22T09:00:30.245Z,1765
2017-03-22T09:01:29.898Z,1595
2017-03-22T09:02:30.147Z,1535
2017-03-22T09:03:29.973Z,1745
2017-03-22T09:04:29.896Z,1950
2017-03-22T09:05:30.137Z,1800
2017-03-22T09:06:29.817Z,1670
2017-03-22T09:07:30.177Z,1745
2017-03-22T09:08:29.504Z,1790
2017-03-22T09:09:30.114Z,1695
2017-03-22T09:10:30.104Z,1720
2017-03-22T09:11:29.837Z,1775
2017-03-22T09:12:29.815Z,1715
2017-03-22T09:13:29.560Z,1675
2017-03-22T09:14:29.485Z,1695
2017-03-22T09:15:29.815Z,1700
2017-03-22T09:16:29.597Z,1495
2017-03-22T09:17:30.183Z,1510
2017-03-22T09:18:29.775Z,1655
2017-03-22T09:19:30.095Z,1710
2017-03-22T09:20:30.077Z,1725
2017-03-22T09:21:29.465Z,1585
2017-03-22T09:22:29.756Z,1600
2017-03-22T09:23:30.124Z,1625
2017-03-22T09:24:30.045Z,1630
2017-03-22T09:25:30.072Z,1615
2017-03-22T09:26:29.867Z,1630
2017-03-22T09:27:29.728Z,1615
2017-03-22T09:28:30.135Z,1580
2017-03-22T09:29:30.066Z,1635
2017-03-22T09:30:30.131Z,1625
2017-03-22T09:31:30.034Z,1555
2017-03-22T09:32:30.045Z,1530
2017-03-22T09:33:30.088Z,1540
2017-03-22T09:34:30.095Z,1540
2017-03-22T09:35:30.046Z,1535
2017-03-22T09:36:29.709Z,1485
2017-03-22T09:37:29.706Z,1465
2017-03-22T09:38:30.101Z,1465
2017-03-22T09:39:30.075Z,1425
2017-03-22T09:40:30.008Z,1425
2017-03-22T09:41:29.985Z,1465
2017-03-22T09:42:29.994Z,1425
2017-03-22T09:43:30.006Z,1380
2017-03-22T09:44:29.356Z,1400
2017-03-22T09:45:29.946Z,1520
2017-03-22T09:46:29.813Z,1435
2017-03-22T09:47:29.757Z,1370
2017-03-22T09:48:29.947Z,1380
2017-03-22T09:49:29.832Z,1355
2017-03-22T09:50:29.653Z,1425
2017-03-22T09:51:29.716Z,1340
2017-03-22T09:52:29.406Z,1350
2017-03-22T09:53:29.905Z,1385
2017-03-22T09:54:29.939Z,1405
2017-03-22T09:55:29.746Z,1375
2017-03-22T09:56:29.922Z,1380
2017-03-22T09:57:29.581Z,1480
2017-03-22T09:58:29.888Z,1440
2017-03-22T09:59:29.716Z,1320
2017-03-22T10:00:29.574Z,1280
2017-03-22T10:01:29.269Z,1395
2017-03-22T10:02:29.906Z,1410
2017-03-22T10:03:29.867Z,1340
2017-03-22T10:04:29.566Z,1345
2017-03-22T10:05:29.866Z,1345
2017-03-22T10:06:29.537Z,1245
2017-03-22T10:07:29.845Z,1175
2017-03-22T10:08:29.596Z,1200
2017-03-22T10:09:30.021Z,1230
2017-03-22T10:10:29.880Z,1265
2017-03-22T10:11:29.915Z,1205
2017-03-22T10:12:29.791Z,1280
2017-03-22T10:13:29.821Z,1295
2017-03-22T10:14:29.837Z,1170
2017-03-22T10:15:29.783Z,1220
2017-03-22T10:16:29.452Z,1210
2017-03-22T10:17:29.571Z,1140
2017-03-22T10:18:29.455Z,1100
2017-03-22T10:19:29.746Z,1090
2017-03-22T10:20:29.436Z,1175
2017-03-22T10:21:29.426Z,1150
2017-03-22T10:22:29.736Z,1105
2017-03-22T10:23:29.410Z,1145
2017-03-22T10:24:29.396Z,1155
2017-03-22T10:25:29.727Z,1045
2017-03-22T10:26:29.407Z,1040
2017-03-22T10:27:29.389Z,1045
2017-03-22T10:28:29.365Z,980
2017-03-22T10:29:29.669Z,915
2017-03-22T10:30:29.674Z,870
2017-03-22T10:31:29.646Z,825
2017-03-22T10:32:29.128Z,815
2017-03-22T10:33:29.625Z,835
2017-03-22T10:34:29.607Z,860
2017-03-22T10:35:29.602Z,960
2017-03-22T10:36:28.977Z,980
2017-03-22T10:37:28.976Z,870
2017-03-22T10:38:29.567Z,795
2017-03-22T10:39:28.933Z,780
2017-03-22T10:40:29.576Z,780
2017-03-22T10:41:29.271Z,730
2017-03-22T10:42:29.257Z,655
2017-03-22T10:43:29.276Z,570
2017-03-22T10:44:29.306Z,425
2017-03-22T10:45:29.169Z,340
2017-03-22T10:46:29.187Z,315
2017-03-22T10:47:29.161Z,315
2017-03-22T10:48:29.304Z,325
2017-03-22T10:49:29.196Z,325
2017-03-22T10:50:29.129Z,330
2017-03-22T10:51:28.799Z,335
2017-03-22T10:52:29.164Z,325
2017-03-22T10:53:29.514Z,330
2017-03-22T10:54:28.756Z,335
2017-03-22T10:55:29.484Z,330
2017-03-22T10:56:28.746Z,330
2017-03-22T10:57:29.098Z,325
2017-03-22T10:58:29.353Z,320
2017-03-22T10:59:29.017Z,320
2017-03-22T11:00:28.700Z,325
2017-03-22T11:01:29.317Z,325
2017-03-22T11:02:29.397Z,330
2017-03-22T11:03:28.645Z,325
2017-03-22T11:04:28.946Z,330
2017-03-22T11:05:28.938Z,330
2017-03-22T11:06:29.301Z,325
2017-03-22T11:07:28.906Z,325
2017-03-22T11:08:28.896Z,320
2017-03-22T11:09:28.887Z,310
2017-03-22T11:10:28.896Z,305
2017-03-22T11:11:28.886Z,305
2017-03-22T11:12:28.576Z,305
2017-03-22T11:13:28.845Z,310
2017-03-22T11:14:28.518Z,315
2017-03-22T11:15:29.126Z,320
2017-03-22T11:16:28.797Z,325
2017-03-22T11:17:28.573Z,330
2017-03-22T11:18:28.464Z,335
2017-03-22T11:19:28.738Z,340
2017-03-22T11:20:29.060Z,345
2017-03-22T11:21:29.035Z,350
2017-03-22T11:22:29.025Z,360
2017-03-22T11:23:29.007Z,370
2017-03-22T11:24:28.715Z,375
2017-03-22T11:25:28.357Z,380
2017-03-22T11:26:28.645Z,385
2017-03-22T11:27:28.966Z,385
2017-03-22T11:28:28.637Z,400
2017-03-22T11:29:28.927Z,415
2017-03-22T11:30:28.625Z,415
2017-03-22T11:31:28.592Z,400
2017-03-22T11:32:28.576Z,405
2017-03-22T11:33:28.871Z,395
2017-03-22T11:34:28.258Z,350
2017-03-22T11:35:28.856Z,310
2017-03-22T11:36:28.619Z,335
2017-03-22T11:37:28.262Z,330
2017-03-22T11:38:28.505Z,315
2017-03-22T11:39:28.786Z,320
2017-03-22T11:40:28.496Z,320
2017-03-22T11:41:28.455Z,315
2017-03-22T11:42:27.846Z,275
2017-03-22T11:43:28.745Z,270
2017-03-22T11:44:28.438Z,245
2017-03-22T11:45:28.438Z,230
2017-03-22T11:46:28.706Z,220
2017-03-22T11:47:28.076Z,210
2017-03-22T11:48:28.709Z,200
2017-03-22T11:49:28.366Z,190
2017-03-22T11:50:28.057Z,185
2017-03-22T11:51:28.656Z,175
2017-03-22T11:52:28.624Z,165
2017-03-22T11:53:28.323Z,165
2017-03-22T11:54:27.993Z,160
2017-03-22T11:55:28.629Z,155
2017-03-22T11:56:28.578Z,150
2017-03-22T11:57:28.032Z,145
2017-03-22T11:58:28.525Z,140
2017-03-22T11:59:27.896Z,140
2017-03-22T12:00:28.185Z,140
2017-03-22T12:01:28.487Z,140
2017-03-22T12:02:27.919Z,135
2017-03-22T12:03:28.153Z,135
2017-03-22T12:04:28.145Z,140
2017-03-22T12:05:28.096Z,140
2017-03-22T12:06:28.116Z,135
2017-03-22T12:07:28.425Z,135
2017-03-22T12:08:28.386Z,140
2017-03-22T12:09:28.356Z,140
2017-03-22T12:10:28.177Z,140
2017-03-22T12:11:28.162Z,145
2017-03-22T12:12:28.125Z,145
2017-03-22T12:13:27.996Z,145
2017-03-22T12:14:28.046Z,150
2017-03-22T12:15:27.702Z,150
2017-03-22T12:16:27.956Z,160
2017-03-22T12:17:28.322Z,165
2017-03-22T12:18:27.922Z,170
2017-03-22T12:19:28.193Z,175
2017-03-22T12:20:27.887Z,180
2017-03-22T12:21:28.176Z,185
2017-03-22T12:22:27.875Z,185
2017-03-22T12:23:28.117Z,190
2017-03-22T12:24:28.162Z,195
2017-03-22T12:25:28.133Z,195
2017-03-22T12:26:27.779Z,190
2017-03-22T12:27:27.496Z,190
2017-03-22T12:28:28.086Z,190
2017-03-22T12:29:28.146Z,190
2017-03-22T12:30:27.803Z,195
2017-03-22T12:31:28.006Z,205
2017-03-22T12:32:27.800Z,210
2017-03-22T12:33:28.065Z,220
2017-03-22T12:34:27.045Z,230
2017-03-22T12:35:27.696Z,240
2017-03-22T12:36:27.646Z,245
2017-03-22T12:37:27.995Z,245
2017-03-22T12:38:27.616Z,250
2017-03-22T12:39:27.267Z,250
2017-03-22T12:40:27.619Z,245
2017-03-22T12:41:27.231Z,250
2017-03-22T12:42:27.962Z,240
2017-03-22T12:43:27.876Z,245
2017-03-22T12:44:27.812Z,240
2017-03-22T12:45:27.846Z,240
2017-03-22T12:46:27.446Z,245
2017-03-22T12:47:27.109Z,235
2017-03-22T12:48:27.745Z,240
2017-03-22T12:49:27.779Z,255
2017-03-22T12:50:27.686Z,300
2017-03-22T12:51:27.066Z,280
2017-03-22T12:52:27.366Z,240
2017-03-22T12:53:27.435Z,215
2017-03-22T12:54:27.384Z,195
2017-03-22T12:55:27.617Z,185
2017-03-22T12:56:27.606Z,180
2017-03-22T12:57:26.981Z,175
2017-03-22T12:58:27.615Z,170
2017-03-22T12:59:27.558Z,170
2017-03-22T13:00:26.590Z,170
2017-03-22T13:01:27.548Z,175
2017-03-22T13:02:27.177Z,180
2017-03-22T13:03:26.866Z,185
2017-03-22T13:04:27.147Z,185
2017-03-22T13:05:27.166Z,180
2017-03-22T13:06:27.439Z,175
2017-03-22T13:07:27.408Z,175
2017-03-22T13:08:26.785Z,175
2017-03-22T13:09:27.377Z,175
2017-03-22T13:10:27.081Z,175
2017-03-22T13:11:27.406Z,175
2017-03-22T13:12:27.047Z,175
2017-03-22T13:13:27.066Z,175
2017-03-22T13:14:26.986Z,175
2017-03-22T13:15:27.346Z,175
2017-03-22T13:16:26.960Z,175
2017-03-22T13:17:26.388Z,175
2017-03-22T13:18:27.335Z,175
2017-03-22T13:19:27.264Z,180
2017-03-22T13:20:27.277Z,180
2017-03-22T13:21:27.193Z,180
2017-03-22T13:22:26.859Z,180
2017-03-22T13:23:27.165Z,180
2017-03-22T13:24:27.147Z,180
2017-03-22T13:25:26.816Z,190
2017-03-22T13:26:26.799Z,205
2017-03-22T13:27:26.790Z,200
2017-03-22T13:28:26.766Z,200
2017-03-22T13:29:27.062Z,195
2017-03-22T13:30:27.046Z,235
2017-03-22T13:31:26.410Z,245
2017-03-22T13:32:27.008Z,190
2017-03-22T13:33:26.366Z,200
2017-03-22T13:34:26.976Z,175
2017-03-22T13:35:26.667Z,165
2017-03-22T13:36:26.647Z,165
2017-03-22T13:37:26.616Z,165
2017-03-22T13:38:26.921Z,155
2017-03-22T13:39:26.602Z,155
2017-03-22T13:40:26.677Z,165
2017-03-22T13:41:26.881Z,155
2017-03-22T13:42:26.837Z,150
2017-03-22T13:43:25.967Z,150
2017-03-22T13:44:26.801Z,150
2017-03-22T13:45:26.795Z,155
2017-03-22T13:46:26.466Z,145
2017-03-22T13:47:26.755Z,135
2017-03-22T13:48:26.427Z,125
2017-03-22T13:49:26.715Z,125
2017-03-22T13:50:26.382Z,115
2017-03-22T13:51:26.370Z,115
2017-03-22T13:52:25.746Z,110
2017-03-22T13:53:26.683Z,110
2017-03-22T13:54:26.028Z,110
2017-03-22T13:55:26.323Z,110
2017-03-22T13:56:26.302Z,110
2017-03-22T13:57:25.975Z,110
2017-03-22T13:58:26.609Z,110
2017-03-22T13:59:26.558Z,115
2017-03-22T14:00:26.526Z,115
2017-03-22T14:01:26.218Z,115
2017-03-22T14:02:26.190Z,115
2017-03-22T14:03:26.479Z,115
2017-03-22T14:04:26.478Z,115
2017-03-22T14:05:26.447Z,110
2017-03-22T14:06:26.427Z,105